sensor_id;sensor_type;location;lat;lon;timestamp;P1;durP1;ratioP1;P2;durP2;ratioP2
3949;SDS011;53057;50.988;6.314;2023-06-04T00:02:06;3.20;;;2.60;;
3949;SDS011;53057;50.988;6.314;2023-06-04T00:04:33;12.67;;;3.10;;
3949;SDS011;53057;50.988;6.314;2023-06-04T00:07:00;3.27;;;2.17;;
3949;SDS011;53057;50.988;6.314;2023-06-04T00:09:26;5.30;;;1.87;;
3949;SDS011;53057;50.988;6.314;2023-06-04T00:11:53;8.03;;;1.80;;
3949;SDS011;53057;50.988;6.314;2023-06-04T00:14:19;7.00;;;2.87;;
3949;SDS011;53057;50.988;6.314;2023-06-04T00:16:46;5.70;;;2.30;;
3949;SDS011;53057;50.988;6.314;2023-06-04T00:19:13;8.73;;;3.03;;
3949;SDS011;53057;50.988;6.314;2023-06-04T00:21:40;6.97;;;2.57;;
3949;SDS011;53057;50.988;6.314;2023-06-04T00:24:06;16.70;;;2.90;;
3949;SDS011;53057;50.988;6.314;2023-06-04T00:26:33;13.93;;;2.77;;
3949;SDS011;53057;50.988;6.314;2023-06-04T00:29:00;5.07;;;2.43;;
3949;SDS011;53057;50.988;6.314;2023-06-04T00:31:27;8.60;;;4.00;;
3949;SDS011;53057;50.988;6.314;2023-06-04T00:33:54;13.97;;;2.20;;
3949;SDS011;53057;50.988;6.314;2023-06-04T00:36:21;14.70;;;3.00;;
3949;SDS011;53057;50.988;6.314;2023-06-04T00:38:47;14.53;;;2.40;;
3949;SDS011;53057;50.988;6.314;2023-06-04T00:41:14;15.13;;;2.80;;
3949;SDS011;53057;50.988;6.314;2023-06-04T00:43:41;6.90;;;2.53;;
3949;SDS011;53057;50.988;6.314;2023-06-04T00:46:12;5.70;;;1.90;;
3949;SDS011;53057;50.988;6.314;2023-06-04T00:48:45;10.70;;;1.73;;
3949;SDS011;53057;50.988;6.314;2023-06-04T00:51:11;5.10;;;1.83;;
3949;SDS011;53057;50.988;6.314;2023-06-04T00:53:39;3.60;;;1.90;;
3949;SDS011;53057;50.988;6.314;2023-06-04T00:56:06;12.23;;;2.10;;
3949;SDS011;53057;50.988;6.314;2023-06-04T00:58:36;7.20;;;2.23;;
3949;SDS011;53057;50.988;6.314;2023-06-04T01:01:04;7.00;;;2.20;;
3949;SDS011;53057;50.988;6.314;2023-06-04T01:03:31;4.10;;;2.40;;
3949;SDS011;53057;50.988;6.314;2023-06-04T01:06:04;5.90;;;2.30;;
3949;SDS011;53057;50.988;6.314;2023-06-04T01:08:35;10.60;;;2.00;;
3949;SDS011;53057;50.988;6.314;2023-06-04T01:11:02;3.30;;;1.70;;
3949;SDS011;53057;50.988;6.314;2023-06-04T01:13:29;5.40;;;2.00;;
3949;SDS011;53057;50.988;6.314;2023-06-04T01:15:56;2.50;;;1.97;;
3949;SDS011;53057;50.988;6.314;2023-06-04T01:18:26;4.50;;;2.30;;
3949;SDS011;53057;50.988;6.314;2023-06-04T01:20:57;9.10;;;2.90;;
3949;SDS011;53057;50.988;6.314;2023-06-04T01:23:26;3.57;;;2.47;;
3949;SDS011;53057;50.988;6.314;2023-06-04T01:26:00;5.13;;;2.37;;
3949;SDS011;53057;50.988;6.314;2023-06-04T01:28:30;12.80;;;1.97;;
3949;SDS011;53057;50.988;6.314;2023-06-04T01:30:56;11.33;;;2.67;;
3949;SDS011;53057;50.988;6.314;2023-06-04T01:33:24;2.90;;;2.20;;
3949;SDS011;53057;50.988;6.314;2023-06-04T01:35:50;5.67;;;2.33;;
3949;SDS011;53057;50.988;6.314;2023-06-04T01:38:17;5.13;;;2.43;;
3949;SDS011;53057;50.988;6.314;2023-06-04T01:40:45;8.93;;;2.53;;
3949;SDS011;53057;50.988;6.314;2023-06-04T01:43:12;3.87;;;2.67;;
3949;SDS011;53057;50.988;6.314;2023-06-04T01:45:38;4.13;;;2.63;;
3949;SDS011;53057;50.988;6.314;2023-06-04T01:48:05;3.30;;;2.20;;
3949;SDS011;53057;50.988;6.314;2023-06-04T01:50:32;4.27;;;2.50;;
3949;SDS011;53057;50.988;6.314;2023-06-04T01:52:59;3.60;;;2.30;;
3949;SDS011;53057;50.988;6.314;2023-06-04T01:55:26;2.80;;;1.83;;
3949;SDS011;53057;50.988;6.314;2023-06-04T01:57:54;3.20;;;1.77;;
3949;SDS011;53057;50.988;6.314;2023-06-04T02:00:21;3.63;;;2.33;;
3949;SDS011;53057;50.988;6.314;2023-06-04T02:02:48;8.13;;;2.27;;
3949;SDS011;53057;50.988;6.314;2023-06-04T02:05:15;4.30;;;2.27;;
3949;SDS011;53057;50.988;6.314;2023-06-04T02:07:43;10.23;;;2.63;;
3949;SDS011;53057;50.988;6.314;2023-06-04T02:10:12;7.70;;;2.90;;
3949;SDS011;53057;50.988;6.314;2023-06-04T02:12:39;3.93;;;2.37;;
3949;SDS011;53057;50.988;6.314;2023-06-04T02:15:07;5.60;;;2.00;;
3949;SDS011;53057;50.988;6.314;2023-06-04T02:17:33;6.43;;;3.17;;
3949;SDS011;53057;50.988;6.314;2023-06-04T02:20:04;3.57;;;2.13;;
3949;SDS011;53057;50.988;6.314;2023-06-04T02:22:31;5.50;;;2.97;;
3949;SDS011;53057;50.988;6.314;2023-06-04T02:24:59;7.30;;;2.67;;
3949;SDS011;53057;50.988;6.314;2023-06-04T02:27:26;4.00;;;2.40;;
3949;SDS011;53057;50.988;6.314;2023-06-04T02:29:53;3.33;;;2.13;;
3949;SDS011;53057;50.988;6.314;2023-06-04T02:32:20;3.97;;;2.77;;
3949;SDS011;53057;50.988;6.314;2023-06-04T02:34:47;3.37;;;2.20;;
3949;SDS011;53057;50.988;6.314;2023-06-04T02:37:13;6.70;;;3.60;;
3949;SDS011;53057;50.988;6.314;2023-06-04T02:39:40;5.67;;;2.90;;
3949;SDS011;53057;50.988;6.314;2023-06-04T02:42:08;4.27;;;2.90;;
3949;SDS011;53057;50.988;6.314;2023-06-04T02:44:35;5.33;;;3.23;;
3949;SDS011;53057;50.988;6.314;2023-06-04T02:47:02;6.90;;;3.10;;
3949;SDS011;53057;50.988;6.314;2023-06-04T02:49:29;3.63;;;3.23;;
3949;SDS011;53057;50.988;6.314;2023-06-04T02:51:56;11.67;;;3.07;;
3949;SDS011;53057;50.988;6.314;2023-06-04T02:54:22;4.90;;;3.23;;
3949;SDS011;53057;50.988;6.314;2023-06-04T02:56:49;4.23;;;3.27;;
3949;SDS011;53057;50.988;6.314;2023-06-04T02:59:16;5.60;;;3.60;;
3949;SDS011;53057;50.988;6.314;2023-06-04T03:01:43;8.87;;;3.10;;
3949;SDS011;53057;50.988;6.314;2023-06-04T03:04:10;7.17;;;3.60;;
3949;SDS011;53057;50.988;6.314;2023-06-04T03:06:41;6.80;;;3.00;;
3949;SDS011;53057;50.988;6.314;2023-06-04T03:09:12;3.90;;;3.00;;
3949;SDS011;53057;50.988;6.314;2023-06-04T03:11:39;7.37;;;3.70;;
3949;SDS011;53057;50.988;6.314;2023-06-04T03:14:07;5.20;;;3.00;;
3949;SDS011;53057;50.988;6.314;2023-06-04T03:16:34;6.07;;;2.93;;
3949;SDS011;53057;50.988;6.314;2023-06-04T03:19:00;5.60;;;4.10;;
3949;SDS011;53057;50.988;6.314;2023-06-04T03:21:27;3.87;;;3.47;;
3949;SDS011;53057;50.988;6.314;2023-06-04T03:23:56;7.40;;;3.67;;
3949;SDS011;53057;50.988;6.314;2023-06-04T03:26:22;6.03;;;3.77;;
3949;SDS011;53057;50.988;6.314;2023-06-04T03:28:49;6.27;;;4.00;;
3949;SDS011;53057;50.988;6.314;2023-06-04T03:31:18;5.00;;;3.70;;
3949;SDS011;53057;50.988;6.314;2023-06-04T03:33:45;5.90;;;3.73;;
3949;SDS011;53057;50.988;6.314;2023-06-04T03:36:12;8.90;;;4.57;;
3949;SDS011;53057;50.988;6.314;2023-06-04T03:38:39;7.43;;;3.90;;
3949;SDS011;53057;50.988;6.314;2023-06-04T03:41:05;8.80;;;4.23;;
3949;SDS011;53057;50.988;6.314;2023-06-04T03:43:32;5.97;;;3.50;;
3949;SDS011;53057;50.988;6.314;2023-06-04T03:46:02;5.10;;;3.10;;
3949;SDS011;53057;50.988;6.314;2023-06-04T03:48:30;5.70;;;3.70;;
3949;SDS011;53057;50.988;6.314;2023-06-04T03:50:57;6.63;;;3.27;;
3949;SDS011;53057;50.988;6.314;2023-06-04T03:53:24;12.30;;;3.77;;
3949;SDS011;53057;50.988;6.314;2023-06-04T03:55:51;7.40;;;3.20;;
3949;SDS011;53057;50.988;6.314;2023-06-04T03:58:17;8.20;;;3.87;;
3949;SDS011;53057;50.988;6.314;2023-06-04T04:00:47;5.63;;;3.40;;
3949;SDS011;53057;50.988;6.314;2023-06-04T04:03:15;9.87;;;4.67;;
3949;SDS011;53057;50.988;6.314;2023-06-04T04:05:43;5.13;;;3.20;;
3949;SDS011;53057;50.988;6.314;2023-06-04T04:08:10;5.37;;;4.13;;
3949;SDS011;53057;50.988;6.314;2023-06-04T04:10:36;5.80;;;3.70;;
3949;SDS011;53057;50.988;6.314;2023-06-04T04:13:03;8.43;;;3.60;;
3949;SDS011;53057;50.988;6.314;2023-06-04T04:15:33;5.77;;;4.00;;
3949;SDS011;53057;50.988;6.314;2023-06-04T04:18:02;6.07;;;4.10;;
3949;SDS011;53057;50.988;6.314;2023-06-04T04:20:29;7.50;;;3.87;;
3949;SDS011;53057;50.988;6.314;2023-06-04T04:23:01;6.83;;;3.70;;
3949;SDS011;53057;50.988;6.314;2023-06-04T04:25:29;6.57;;;3.67;;
3949;SDS011;53057;50.988;6.314;2023-06-04T04:27:56;6.50;;;4.17;;
3949;SDS011;53057;50.988;6.314;2023-06-04T04:30:24;10.73;;;4.57;;
3949;SDS011;53057;50.988;6.314;2023-06-04T04:32:51;7.27;;;3.80;;
3949;SDS011;53057;50.988;6.314;2023-06-04T04:35:24;12.20;;;3.60;;
3949;SDS011;53057;50.988;6.314;2023-06-04T04:37:55;5.67;;;4.07;;
3949;SDS011;53057;50.988;6.314;2023-06-04T04:40:24;7.73;;;3.50;;
3949;SDS011;53057;50.988;6.314;2023-06-04T04:42:53;21.50;;;4.10;;
3949;SDS011;53057;50.988;6.314;2023-06-04T04:45:20;6.07;;;4.10;;
3949;SDS011;53057;50.988;6.314;2023-06-04T04:47:49;5.17;;;3.73;;
3949;SDS011;53057;50.988;6.314;2023-06-04T04:50:17;7.27;;;4.40;;
3949;SDS011;53057;50.988;6.314;2023-06-04T04:52:44;6.17;;;4.43;;
3949;SDS011;53057;50.988;6.314;2023-06-04T04:55:10;5.57;;;3.30;;
3949;SDS011;53057;50.988;6.314;2023-06-04T04:57:38;7.80;;;3.13;;
3949;SDS011;53057;50.988;6.314;2023-06-04T05:00:06;8.27;;;3.80;;
3949;SDS011;53057;50.988;6.314;2023-06-04T05:02:37;8.40;;;4.40;;
3949;SDS011;53057;50.988;6.314;2023-06-04T05:05:04;6.67;;;3.90;;
3949;SDS011;53057;50.988;6.314;2023-06-04T05:07:31;9.47;;;4.17;;
3949;SDS011;53057;50.988;6.314;2023-06-04T05:09:57;6.53;;;3.27;;
3949;SDS011;53057;50.988;6.314;2023-06-04T05:12:26;5.80;;;3.30;;
3949;SDS011;53057;50.988;6.314;2023-06-04T05:14:53;6.27;;;3.97;;
3949;SDS011;53057;50.988;6.314;2023-06-04T05:17:19;10.23;;;4.10;;
3949;SDS011;53057;50.988;6.314;2023-06-04T05:20:01;6.97;;;4.10;;
3949;SDS011;53057;50.988;6.314;2023-06-04T05:22:35;4.20;;;3.80;;
3949;SDS011;53057;50.988;6.314;2023-06-04T05:25:04;5.43;;;3.47;;
3949;SDS011;53057;50.988;6.314;2023-06-04T05:27:32;10.53;;;4.70;;
3949;SDS011;53057;50.988;6.314;2023-06-04T05:29:59;6.30;;;4.00;;
3949;SDS011;53057;50.988;6.314;2023-06-04T05:32:27;12.23;;;3.90;;
3949;SDS011;53057;50.988;6.314;2023-06-04T05:34:57;4.53;;;2.70;;
3949;SDS011;53057;50.988;6.314;2023-06-04T05:37:28;10.60;;;3.73;;
3949;SDS011;53057;50.988;6.314;2023-06-04T05:39:56;5.57;;;3.07;;
3949;SDS011;53057;50.988;6.314;2023-06-04T05:42:23;7.47;;;3.37;;
3949;SDS011;53057;50.988;6.314;2023-06-04T05:44:50;5.40;;;3.27;;
3949;SDS011;53057;50.988;6.314;2023-06-04T05:47:18;7.73;;;3.27;;
3949;SDS011;53057;50.988;6.314;2023-06-04T05:49:50;3.80;;;2.60;;
3949;SDS011;53057;50.988;6.314;2023-06-04T05:52:17;6.40;;;2.93;;
3949;SDS011;53057;50.988;6.314;2023-06-04T05:54:45;7.27;;;4.03;;
3949;SDS011;53057;50.988;6.314;2023-06-04T05:57:12;14.33;;;3.23;;
3949;SDS011;53057;50.988;6.314;2023-06-04T05:59:39;3.90;;;2.70;;
3949;SDS011;53057;50.988;6.314;2023-06-04T06:02:10;5.03;;;2.60;;
3949;SDS011;53057;50.988;6.314;2023-06-04T06:04:38;3.23;;;2.90;;
3949;SDS011;53057;50.988;6.314;2023-06-04T06:07:05;8.10;;;2.53;;
3949;SDS011;53057;50.988;6.314;2023-06-04T06:09:32;3.67;;;3.37;;
3949;SDS011;53057;50.988;6.314;2023-06-04T06:11:58;6.03;;;2.90;;
3949;SDS011;53057;50.988;6.314;2023-06-04T06:14:25;8.37;;;3.00;;
3949;SDS011;53057;50.988;6.314;2023-06-04T06:16:52;6.13;;;3.17;;
3949;SDS011;53057;50.988;6.314;2023-06-04T06:19:19;6.23;;;2.60;;
3949;SDS011;53057;50.988;6.314;2023-06-04T06:21:46;6.27;;;3.03;;
3949;SDS011;53057;50.988;6.314;2023-06-04T06:24:13;3.83;;;2.30;;
3949;SDS011;53057;50.988;6.314;2023-06-04T06:26:40;3.87;;;2.73;;
3949;SDS011;53057;50.988;6.314;2023-06-04T06:29:09;8.20;;;2.80;;
3949;SDS011;53057;50.988;6.314;2023-06-04T06:31:36;7.67;;;2.60;;
3949;SDS011;53057;50.988;6.314;2023-06-04T06:34:02;5.63;;;1.90;;
3949;SDS011;53057;50.988;6.314;2023-06-04T06:36:29;2.63;;;2.30;;
3949;SDS011;53057;50.988;6.314;2023-06-04T06:38:56;3.87;;;2.87;;
3949;SDS011;53057;50.988;6.314;2023-06-04T06:41:22;3.07;;;2.60;;
3949;SDS011;53057;50.988;6.314;2023-06-04T06:43:49;3.90;;;2.40;;
3949;SDS011;53057;50.988;6.314;2023-06-04T06:46:20;8.57;;;2.60;;
3949;SDS011;53057;50.988;6.314;2023-06-04T06:48:46;4.40;;;1.80;;
3949;SDS011;53057;50.988;6.314;2023-06-04T06:51:14;4.53;;;2.40;;
3949;SDS011;53057;50.988;6.314;2023-06-04T06:53:41;4.07;;;2.27;;
3949;SDS011;53057;50.988;6.314;2023-06-04T06:56:08;4.40;;;2.33;;
3949;SDS011;53057;50.988;6.314;2023-06-04T06:58:34;3.80;;;2.20;;
3949;SDS011;53057;50.988;6.314;2023-06-04T07:01:01;4.20;;;2.53;;
3949;SDS011;53057;50.988;6.314;2023-06-04T07:03:28;5.47;;;1.93;;
3949;SDS011;53057;50.988;6.314;2023-06-04T07:05:55;4.27;;;2.10;;
3949;SDS011;53057;50.988;6.314;2023-06-04T07:08:22;3.37;;;2.37;;
3949;SDS011;53057;50.988;6.314;2023-06-04T07:10:48;4.43;;;2.47;;
3949;SDS011;53057;50.988;6.314;2023-06-04T07:13:15;6.63;;;2.03;;
3949;SDS011;53057;50.988;6.314;2023-06-04T07:15:42;3.40;;;2.23;;
3949;SDS011;53057;50.988;6.314;2023-06-04T07:18:09;8.70;;;2.50;;
3949;SDS011;53057;50.988;6.314;2023-06-04T07:20:36;10.40;;;2.07;;
3949;SDS011;53057;50.988;6.314;2023-06-04T07:23:03;2.50;;;2.27;;
3949;SDS011;53057;50.988;6.314;2023-06-04T07:25:30;4.97;;;2.33;;
3949;SDS011;53057;50.988;6.314;2023-06-04T07:27:57;7.00;;;2.50;;
3949;SDS011;53057;50.988;6.314;2023-06-04T07:30:25;5.80;;;2.20;;
3949;SDS011;53057;50.988;6.314;2023-06-04T07:32:51;2.20;;;1.97;;
3949;SDS011;53057;50.988;6.314;2023-06-04T07:35:19;7.03;;;2.50;;
3949;SDS011;53057;50.988;6.314;2023-06-04T07:37:46;6.30;;;2.60;;
3949;SDS011;53057;50.988;6.314;2023-06-04T07:40:15;5.33;;;2.23;;
3949;SDS011;53057;50.988;6.314;2023-06-04T07:42:42;10.00;;;2.70;;
3949;SDS011;53057;50.988;6.314;2023-06-04T07:45:09;4.20;;;2.73;;
3949;SDS011;53057;50.988;6.314;2023-06-04T07:47:36;5.13;;;2.40;;
3949;SDS011;53057;50.988;6.314;2023-06-04T07:50:03;6.50;;;2.47;;
3949;SDS011;53057;50.988;6.314;2023-06-04T07:52:30;7.47;;;2.60;;
3949;SDS011;53057;50.988;6.314;2023-06-04T07:54:57;9.63;;;3.10;;
3949;SDS011;53057;50.988;6.314;2023-06-04T07:57:24;9.60;;;2.67;;
3949;SDS011;53057;50.988;6.314;2023-06-04T07:59:51;2.73;;;2.13;;
3949;SDS011;53057;50.988;6.314;2023-06-04T08:02:18;6.73;;;3.10;;
3949;SDS011;53057;50.988;6.314;2023-06-04T08:04:45;3.40;;;2.40;;
3949;SDS011;53057;50.988;6.314;2023-06-04T08:07:15;9.30;;;3.03;;
3949;SDS011;53057;50.988;6.314;2023-06-04T08:09:41;5.13;;;2.33;;
3949;SDS011;53057;50.988;6.314;2023-06-04T08:12:10;5.90;;;1.90;;
3949;SDS011;53057;50.988;6.314;2023-06-04T08:14:37;7.67;;;2.43;;
3949;SDS011;53057;50.988;6.314;2023-06-04T08:17:04;2.23;;;1.70;;
3949;SDS011;53057;50.988;6.314;2023-06-04T08:19:41;2.93;;;2.23;;
3949;SDS011;53057;50.988;6.314;2023-06-04T08:22:11;5.00;;;2.80;;
3949;SDS011;53057;50.988;6.314;2023-06-04T08:24:48;6.10;;;2.63;;
3949;SDS011;53057;50.988;6.314;2023-06-04T08:27:35;3.43;;;2.27;;
3949;SDS011;53057;50.988;6.314;2023-06-04T08:30:16;2.60;;;2.10;;
3949;SDS011;53057;50.988;6.314;2023-06-04T08:33:03;7.00;;;2.57;;
3949;SDS011;53057;50.988;6.314;2023-06-04T08:35:40;2.47;;;2.17;;
3949;SDS011;53057;50.988;6.314;2023-06-04T08:38:07;5.03;;;2.33;;
3949;SDS011;53057;50.988;6.314;2023-06-04T08:40:33;3.30;;;2.23;;
3949;SDS011;53057;50.988;6.314;2023-06-04T08:43:01;13.83;;;2.30;;
3949;SDS011;53057;50.988;6.314;2023-06-04T08:45:28;2.90;;;2.23;;
3949;SDS011;53057;50.988;6.314;2023-06-04T08:47:57;2.23;;;1.93;;
3949;SDS011;53057;50.988;6.314;2023-06-04T08:50:24;4.70;;;2.30;;
3949;SDS011;53057;50.988;6.314;2023-06-04T08:52:52;12.40;;;2.47;;
3949;SDS011;53057;50.988;6.314;2023-06-04T08:55:19;12.10;;;2.77;;
3949;SDS011;53057;50.988;6.314;2023-06-04T08:57:47;9.50;;;1.90;;
3949;SDS011;53057;50.988;6.314;2023-06-04T09:00:14;5.50;;;2.10;;
3949;SDS011;53057;50.988;6.314;2023-06-04T09:02:42;10.40;;;1.80;;
3949;SDS011;53057;50.988;6.314;2023-06-04T09:05:10;5.17;;;2.30;;
3949;SDS011;53057;50.988;6.314;2023-06-04T09:07:46;6.83;;;1.80;;
3949;SDS011;53057;50.988;6.314;2023-06-04T09:10:15;3.43;;;1.40;;
3949;SDS011;53057;50.988;6.314;2023-06-04T09:12:45;7.97;;;1.80;;
3949;SDS011;53057;50.988;6.314;2023-06-04T09:15:13;1.60;;;1.50;;
3949;SDS011;53057;50.988;6.314;2023-06-04T09:17:39;2.43;;;1.80;;
3949;SDS011;53057;50.988;6.314;2023-06-04T09:20:07;5.13;;;1.80;;
3949;SDS011;53057;50.988;6.314;2023-06-04T09:22:36;3.27;;;1.67;;
3949;SDS011;53057;50.988;6.314;2023-06-04T09:25:04;2.90;;;1.60;;
3949;SDS011;53057;50.988;6.314;2023-06-04T09:27:37;2.67;;;1.80;;
3949;SDS011;53057;50.988;6.314;2023-06-04T09:30:05;5.30;;;2.50;;
3949;SDS011;53057;50.988;6.314;2023-06-04T09:32:32;5.43;;;2.10;;
3949;SDS011;53057;50.988;6.314;2023-06-04T09:42:11;3.70;;;2.10;;
3949;SDS011;53057;50.988;6.314;2023-06-04T09:44:45;3.20;;;2.37;;
3949;SDS011;53057;50.988;6.314;2023-06-04T09:47:14;2.13;;;1.93;;
3949;SDS011;53057;50.988;6.314;2023-06-04T09:49:46;6.50;;;2.10;;
3949;SDS011;53057;50.988;6.314;2023-06-04T09:52:13;2.13;;;1.87;;
3949;SDS011;53057;50.988;6.314;2023-06-04T09:54:41;2.60;;;1.87;;
3949;SDS011;53057;50.988;6.314;2023-06-04T09:57:15;2.63;;;1.77;;
3949;SDS011;53057;50.988;6.314;2023-06-04T09:59:43;4.33;;;1.50;;
3949;SDS011;53057;50.988;6.314;2023-06-04T10:02:12;3.27;;;1.77;;
3949;SDS011;53057;50.988;6.314;2023-06-04T10:04:41;1.60;;;1.50;;
3949;SDS011;53057;50.988;6.314;2023-06-04T10:07:11;1.63;;;1.53;;
3949;SDS011;53057;50.988;6.314;2023-06-04T10:09:39;3.30;;;2.10;;
3949;SDS011;53057;50.988;6.314;2023-06-04T10:12:13;2.77;;;1.73;;
3949;SDS011;53057;50.988;6.314;2023-06-04T10:14:45;6.20;;;2.57;;
3949;SDS011;53057;50.988;6.314;2023-06-04T10:17:15;5.90;;;2.40;;
3949;SDS011;53057;50.988;6.314;2023-06-04T10:19:46;3.30;;;1.73;;
3949;SDS011;53057;50.988;6.314;2023-06-04T10:22:14;5.30;;;2.33;;
3949;SDS011;53057;50.988;6.314;2023-06-04T10:24:43;7.70;;;1.63;;
3949;SDS011;53057;50.988;6.314;2023-06-04T10:27:11;5.50;;;2.20;;
3949;SDS011;53057;50.988;6.314;2023-06-04T10:29:44;4.50;;;2.27;;
3949;SDS011;53057;50.988;6.314;2023-06-04T10:32:13;2.90;;;2.17;;
3949;SDS011;53057;50.988;6.314;2023-06-04T10:34:42;3.57;;;2.00;;
3949;SDS011;53057;50.988;6.314;2023-06-04T10:37:18;4.53;;;1.60;;
3949;SDS011;53057;50.988;6.314;2023-06-04T10:39:53;2.60;;;1.77;;
3949;SDS011;53057;50.988;6.314;2023-06-04T10:42:22;8.60;;;1.90;;
3949;SDS011;53057;50.988;6.314;2023-06-04T10:44:49;2.33;;;1.60;;
3949;SDS011;53057;50.988;6.314;2023-06-04T10:47:24;2.17;;;1.90;;
3949;SDS011;53057;50.988;6.314;2023-06-04T10:49:53;2.63;;;1.50;;
3949;SDS011;53057;50.988;6.314;2023-06-04T10:52:21;2.90;;;1.93;;
3949;SDS011;53057;50.988;6.314;2023-06-04T10:54:49;8.57;;;2.03;;
3949;SDS011;53057;50.988;6.314;2023-06-04T10:57:19;2.43;;;1.70;;
3949;SDS011;53057;50.988;6.314;2023-06-04T10:59:56;2.43;;;2.03;;
3949;SDS011;53057;50.988;6.314;2023-06-04T11:02:24;3.20;;;1.87;;
3949;SDS011;53057;50.988;6.314;2023-06-04T11:05:02;3.83;;;2.20;;
3949;SDS011;53057;50.988;6.314;2023-06-04T11:07:42;2.80;;;1.57;;
3949;SDS011;53057;50.988;6.314;2023-06-04T11:10:12;8.97;;;1.93;;
3949;SDS011;53057;50.988;6.314;2023-06-04T11:12:46;3.37;;;1.77;;
3949;SDS011;53057;50.988;6.314;2023-06-04T11:15:14;3.50;;;1.77;;
3949;SDS011;53057;50.988;6.314;2023-06-04T11:20:20;2.97;;;1.70;;
3949;SDS011;53057;50.988;6.314;2023-06-04T11:22:55;4.17;;;1.80;;
3949;SDS011;53057;50.988;6.314;2023-06-04T11:25:24;2.10;;;1.60;;
3949;SDS011;53057;50.988;6.314;2023-06-04T11:27:53;7.13;;;2.00;;
3949;SDS011;53057;50.988;6.314;2023-06-04T11:30:20;7.63;;;1.67;;
3949;SDS011;53057;50.988;6.314;2023-06-04T11:32:48;3.80;;;1.60;;
3949;SDS011;53057;50.988;6.314;2023-06-04T11:35:15;3.13;;;1.70;;
3949;SDS011;53057;50.988;6.314;2023-06-04T11:37:41;5.30;;;2.23;;
3949;SDS011;53057;50.988;6.314;2023-06-04T11:40:14;6.80;;;2.07;;
3949;SDS011;53057;50.988;6.314;2023-06-04T11:42:41;2.43;;;1.30;;
3949;SDS011;53057;50.988;6.314;2023-06-04T11:45:14;3.00;;;1.67;;
3949;SDS011;53057;50.988;6.314;2023-06-04T11:47:44;1.63;;;1.53;;
3949;SDS011;53057;50.988;6.314;2023-06-04T11:50:11;2.43;;;1.83;;
3949;SDS011;53057;50.988;6.314;2023-06-04T11:52:38;4.13;;;1.87;;
3949;SDS011;53057;50.988;6.314;2023-06-04T11:55:07;2.27;;;1.83;;
3949;SDS011;53057;50.988;6.314;2023-06-04T11:57:34;1.63;;;1.30;;
3949;SDS011;53057;50.988;6.314;2023-06-04T12:00:01;2.30;;;2.10;;
3949;SDS011;53057;50.988;6.314;2023-06-04T12:02:37;4.80;;;1.67;;
3949;SDS011;53057;50.988;6.314;2023-06-04T12:05:13;2.73;;;1.73;;
3949;SDS011;53057;50.988;6.314;2023-06-04T12:07:40;3.47;;;2.20;;
3949;SDS011;53057;50.988;6.314;2023-06-04T12:10:08;1.93;;;1.43;;
3949;SDS011;53057;50.988;6.314;2023-06-04T12:12:35;7.10;;;2.43;;
3949;SDS011;53057;50.988;6.314;2023-06-04T12:15:02;9.67;;;2.30;;
3949;SDS011;53057;50.988;6.314;2023-06-04T12:17:32;6.80;;;1.90;;
3949;SDS011;53057;50.988;6.314;2023-06-04T12:19:59;4.23;;;1.60;;
3949;SDS011;53057;50.988;6.314;2023-06-04T12:22:25;4.23;;;1.77;;
3949;SDS011;53057;50.988;6.314;2023-06-04T12:24:56;12.50;;;2.60;;
3949;SDS011;53057;50.988;6.314;2023-06-04T12:27:24;1.83;;;1.70;;
3949;SDS011;53057;50.988;6.314;2023-06-04T12:29:58;5.60;;;2.30;;
3949;SDS011;53057;50.988;6.314;2023-06-04T12:32:26;2.10;;;1.73;;
3949;SDS011;53057;50.988;6.314;2023-06-04T12:34:53;1.83;;;1.67;;
3949;SDS011;53057;50.988;6.314;2023-06-04T12:37:21;3.60;;;1.73;;
3949;SDS011;53057;50.988;6.314;2023-06-04T12:39:48;3.03;;;1.90;;
3949;SDS011;53057;50.988;6.314;2023-06-04T12:42:14;4.87;;;2.40;;
3949;SDS011;53057;50.988;6.314;2023-06-04T12:44:41;1.90;;;1.80;;
3949;SDS011;53057;50.988;6.314;2023-06-04T12:47:08;4.30;;;1.70;;
3949;SDS011;53057;50.988;6.314;2023-06-04T12:49:35;2.23;;;1.70;;
3949;SDS011;53057;50.988;6.314;2023-06-04T12:52:02;6.53;;;1.53;;
3949;SDS011;53057;50.988;6.314;2023-06-04T12:54:29;2.30;;;1.50;;
3949;SDS011;53057;50.988;6.314;2023-06-04T12:56:56;1.40;;;1.30;;
3949;SDS011;53057;50.988;6.314;2023-06-04T12:59:28;2.27;;;1.77;;
3949;SDS011;53057;50.988;6.314;2023-06-04T13:01:55;3.47;;;2.37;;
3949;SDS011;53057;50.988;6.314;2023-06-04T13:04:22;7.43;;;1.83;;
3949;SDS011;53057;50.988;6.314;2023-06-04T13:06:50;5.03;;;1.87;;
3949;SDS011;53057;50.988;6.314;2023-06-04T13:09:18;2.20;;;2.10;;
3949;SDS011;53057;50.988;6.314;2023-06-04T13:11:47;2.50;;;2.17;;
3949;SDS011;53057;50.988;6.314;2023-06-04T13:14:13;7.90;;;2.13;;
3949;SDS011;53057;50.988;6.314;2023-06-04T13:16:40;3.00;;;1.60;;
3949;SDS011;53057;50.988;6.314;2023-06-04T13:19:07;2.50;;;1.80;;
3949;SDS011;53057;50.988;6.314;2023-06-04T13:21:34;2.00;;;1.80;;
3949;SDS011;53057;50.988;6.314;2023-06-04T13:24:02;4.10;;;2.00;;
3949;SDS011;53057;50.988;6.314;2023-06-04T13:26:30;4.17;;;1.80;;
3949;SDS011;53057;50.988;6.314;2023-06-04T13:28:56;2.53;;;2.13;;
3949;SDS011;53057;50.988;6.314;2023-06-04T13:31:23;4.40;;;2.37;;
3949;SDS011;53057;50.988;6.314;2023-06-04T13:33:50;6.47;;;2.30;;
3949;SDS011;53057;50.988;6.314;2023-06-04T13:36:16;1.50;;;1.40;;
3949;SDS011;53057;50.988;6.314;2023-06-04T13:38:43;2.63;;;2.13;;
3949;SDS011;53057;50.988;6.314;2023-06-04T13:41:11;2.80;;;1.90;;
3949;SDS011;53057;50.988;6.314;2023-06-04T13:43:39;6.43;;;2.40;;
3949;SDS011;53057;50.988;6.314;2023-06-04T13:46:06;5.90;;;2.27;;
3949;SDS011;53057;50.988;6.314;2023-06-04T13:48:32;4.90;;;2.00;;
3949;SDS011;53057;50.988;6.314;2023-06-04T13:50:59;7.30;;;2.10;;
3949;SDS011;53057;50.988;6.314;2023-06-04T13:53:26;3.07;;;1.70;;
3949;SDS011;53057;50.988;6.314;2023-06-04T13:55:53;8.30;;;1.80;;
3949;SDS011;53057;50.988;6.314;2023-06-04T13:58:25;1.77;;;1.50;;
3949;SDS011;53057;50.988;6.314;2023-06-04T14:00:51;4.80;;;1.80;;
3949;SDS011;53057;50.988;6.314;2023-06-04T14:03:18;3.10;;;2.20;;
3949;SDS011;53057;50.988;6.314;2023-06-04T14:05:45;7.10;;;2.80;;
3949;SDS011;53057;50.988;6.314;2023-06-04T14:08:12;3.97;;;1.77;;
3949;SDS011;53057;50.988;6.314;2023-06-04T14:10:39;1.53;;;1.43;;
3949;SDS011;53057;50.988;6.314;2023-06-04T14:13:09;2.90;;;2.20;;
3949;SDS011;53057;50.988;6.314;2023-06-04T14:15:36;3.90;;;1.77;;
3949;SDS011;53057;50.988;6.314;2023-06-04T14:18:03;3.23;;;2.60;;
3949;SDS011;53057;50.988;6.314;2023-06-04T14:20:31;2.50;;;1.50;;
3949;SDS011;53057;50.988;6.314;2023-06-04T14:22:58;2.20;;;2.00;;
3949;SDS011;53057;50.988;6.314;2023-06-04T14:25:26;2.70;;;2.00;;
3949;SDS011;53057;50.988;6.314;2023-06-04T14:27:54;1.53;;;1.43;;
3949;SDS011;53057;50.988;6.314;2023-06-04T14:30:21;1.70;;;1.60;;
3949;SDS011;53057;50.988;6.314;2023-06-04T14:32:49;3.97;;;2.27;;
3949;SDS011;53057;50.988;6.314;2023-06-04T14:35:16;2.43;;;1.90;;
3949;SDS011;53057;50.988;6.314;2023-06-04T14:37:45;5.67;;;2.00;;
3949;SDS011;53057;50.988;6.314;2023-06-04T14:40:13;2.87;;;2.43;;
3949;SDS011;53057;50.988;6.314;2023-06-04T14:42:39;4.17;;;2.00;;
3949;SDS011;53057;50.988;6.314;2023-06-04T14:45:06;1.60;;;1.50;;
3949;SDS011;53057;50.988;6.314;2023-06-04T14:47:33;4.10;;;1.70;;
3949;SDS011;53057;50.988;6.314;2023-06-04T14:49:59;2.30;;;1.67;;
3949;SDS011;53057;50.988;6.314;2023-06-04T14:52:26;1.80;;;1.67;;
3949;SDS011;53057;50.988;6.314;2023-06-04T14:54:54;1.97;;;1.70;;
3949;SDS011;53057;50.988;6.314;2023-06-04T14:57:21;5.70;;;2.13;;
3949;SDS011;53057;50.988;6.314;2023-06-04T14:59:48;2.70;;;1.30;;
3949;SDS011;53057;50.988;6.314;2023-06-04T15:02:15;3.27;;;1.67;;
3949;SDS011;53057;50.988;6.314;2023-06-04T15:04:46;4.03;;;1.80;;
3949;SDS011;53057;50.988;6.314;2023-06-04T15:07:13;2.20;;;1.97;;
3949;SDS011;53057;50.988;6.314;2023-06-04T15:09:40;1.87;;;1.70;;
3949;SDS011;53057;50.988;6.314;2023-06-04T15:12:06;1.87;;;1.77;;
3949;SDS011;53057;50.988;6.314;2023-06-04T15:14:34;2.70;;;2.50;;
3949;SDS011;53057;50.988;6.314;2023-06-04T15:17:01;4.40;;;2.30;;